Terminal Aerodrome Forecast
Issued by NWS

Current Version | Previous Version | Graphics & Text | Print | Product List | Glossary On
Versions: 1 2 3 4 5 6 7 8 9 10 11 12 13 14 15 16 17 18 19 20 21 22 23
000
FTUS41 KRNK 172325
TAFLWB
TAF
KLWB 172325Z 1800/1824 24007KT 3SM -SHRA OVC020
      TEMPO 1800/1803 OVC003
     FM180300 27008KT 4SM -SHRA OVC020
     FM181500 29010G26KT P6SM BKN020
     FM181900 30010G21KT P6SM BKN035
     FM182100 30009KT P6SM SCT035=

USA.gov is the U.S. government's official web portal to all federal, state and local government web resources and services.